Klam

Klam - Philip Roth | Paninij.org

INFORMACE

AUTOR
Philip Roth
DIMENZE
8,1 MB
NÁZEV SOUBORU
Klam.pdf


Chcete si knihu přečíst?Klam ve formátu pdf? Dobrá volba! Tuto knihu napsal autor Philip Roth. Číst Klam Online je nyní tak snadné!





POPIS


Ve většině ze svých románů k potěšení svých čtenářů Roth hledá a zároveň zamlžuje to skutečné a opravdové z vlastního života. V Klamu máme možnost naslouchat důvěrným rozmluvám autora s jeho anglickou milenkou ve spartánsky zařízeném ateliéru, kde se patrně odvíjejí něžné chvíle i s přítelkyněmi z Československa a Polska. Když však část rozhovorů vyslechne i spisovatelova manželka, nastává zvrat, který Philip Roth ironicky řeší budováním dalších fikcí. Muži i ženy zde naleznou mnohé pro svou vlastní inspiraci a seberealizaci v těchto křehkých milostných soubojích i v moudrém dialogu, který udrží čtenáře od začátku až do konce v trvalém napětí.


...to Cordova, Alaska! Here, you can follow links to AM 1450 KLAM and 100 ... What Does The Name Klam Mean? - The Meaning of Names ... .9 KCDV The Eagle. Click the logo of either station below to check our rates, look at our program schedules, check the local weather and tides, and learn how to contact us. Compare and book your KLM flights and view our special ticket deals and last minutes. Check in online on KLM.com or book a hotel or rental car for your trip Complete aeronautical information about Los Alamos Airport (Los Alamos, NM, USA), including location, runways, taxiways, navaids, radio frequencies, FBO information, fuel prices, sunrise and sunset times, aerial photo, airport diagram. ... KLAM : 180315Z AUTO 24009KT 10SM SCT120 21/00 A3017 RMK AO2 T021 ... Klam - Wikipedia ... . ... KLAM : 180315Z AUTO 24009KT 10SM SCT120 21/00 A3017 RMK AO2 T02131005 KSAF 18nm SE : Klam is a mun...



SOUVISEJÍCÍ KNIHY